Time;durP1;ratioP1;P1;durP2;ratioP2;P2;SDS_P1;SDS_P2;PMS_P1;PMS_P2;Temp;Humidity;BMP_temperature;BMP_pressure;BME280_temperature;BME280_humidity;BME280_pressure;Samples;Min_cycle;Max_cycle;Signal;HPM_P1;HPM_P2
2021/07/23 00:00:39;;;;;;;16.58;11.43;;;;;;;16.84;85.76;96411.09;5031917;28;20037;-85
2021/07/23 00:03:05;;;;;;;15.35;11.20;;;;;;;16.84;86.53;96404.97;5030991;28;20581;-85
2021/07/23 00:05:32;;;;;;;17.73;11.75;;;;;;;16.76;87.33;96405.09;5032763;28;20120;-85
2021/07/23 00:07:57;;;;;;;15.68;10.82;;;;;;;16.75;87.42;96401.63;5016012;28;20055;-86
2021/07/23 00:10:24;;;;;;;18.08;12.40;;;;;;;16.62;88.52;96407.63;5031889;28;20115;-85
2021/07/23 00:12:50;;;;;;;18.20;12.68;;;;;;;16.69;87.94;96407.66;5024891;28;20133;-85
2021/07/23 00:15:16;;;;;;;14.85;12.40;;;;;;;16.78;87.50;96405.72;5039391;28;20136;-85
2021/07/23 00:17:42;;;;;;;16.67;11.52;;;;;;;16.77;86.76;96399.59;5014382;28;20041;-84
2021/07/23 00:20:08;;;;;;;13.85;11.65;;;;;;;16.62;87.55;96402.31;5007356;28;20033;-85
2021/07/23 00:22:34;;;;;;;13.40;11.13;;;;;;;16.60;87.74;96399.03;5013381;28;20039;-85
2021/07/23 00:25:00;;;;;;;14.88;10.77;;;;;;;16.58;86.58;96393.09;5030426;28;20037;-85
2021/07/23 00:27:29;;;;;;;14.85;11.63;;;;;;;16.58;86.28;96398.41;5032785;28;20029;-85
2021/07/23 00:29:54;;;;;;;13.52;10.32;;;;;;;16.52;86.72;96395.69;5032652;28;20116;-85
2021/07/23 00:32:22;;;;;;;15.93;11.40;;;;;;;16.47;86.70;96394.44;5029884;28;20029;-85
2021/07/23 00:34:48;;;;;;;15.80;9.48;;;;;;;16.38;86.90;96387.63;5010562;28;20533;-86
2021/07/23 00:37:13;;;;;;;15.18;10.85;;;;;;;16.42;86.54;96391.53;5031253;28;20060;-86
2021/07/23 00:39:39;;;;;;;15.68;11.30;;;;;;;16.41;86.73;96389.06;5034503;28;20021;-86
2021/07/23 00:42:06;;;;;;;16.57;12.03;;;;;;;16.33;87.26;96390.03;5038149;28;20033;-85
2021/07/23 00:44:32;;;;;;;14.33;10.50;;;;;;;16.24;88.09;96384.03;5016233;28;20108;-84
2021/07/23 00:46:58;;;;;;;15.52;10.60;;;;;;;16.09;89.23;96377.97;5007113;28;20075;-85
2021/07/23 00:49:28;;;;;;;16.77;11.20;;;;;;;16.18;88.49;96382.16;5014323;28;20089;-85
2021/07/23 00:51:54;;;;;;;14.53;11.30;;;;;;;16.14;89.13;96382.72;5021306;28;20083;-86
2021/07/23 00:54:21;;;;;;;16.73;12.30;;;;;;;15.79;91.27;96375.47;5030165;28;20120;-86
2021/07/23 00:56:49;;;;;;;15.90;11.93;;;;;;;15.79;91.41;96378.13;5022469;28;20308;-85
2021/07/23 00:59:19;;;;;;;15.93;11.67;;;;;;;15.78;91.70;96372.97;5022524;28;20029;-85
2021/07/23 01:01:48;;;;;;;17.30;11.20;;;;;;;15.85;91.66;96365.09;5028122;28;20033;-85
2021/07/23 01:04:17;;;;;;;14.60;11.47;;;;;;;15.84;91.43;96382.03;5032054;28;20032;-85
2021/07/23 01:06:43;;;;;;;14.47;11.90;;;;;;;15.75;92.16;96384.78;5033317;28;20134;-86
2021/07/23 01:09:12;;;;;;;16.10;11.93;;;;;;;15.44;94.55;96371.75;5017396;28;20025;-85
2021/07/23 01:11:38;;;;;;;18.73;12.17;;;;;;;15.43;94.47;96377.25;5032622;28;20559;-85
2021/07/23 01:14:36;;;;;;;16.37;11.63;;;;;;;15.58;94.15;96372.72;5032509;28;20029;-86
2021/07/23 01:17:02;;;;;;;15.90;11.37;;;;;;;15.62;92.95;96367.88;5012825;28;20037;-85
2021/07/23 01:19:37;;;;;;;16.30;10.93;;;;;;;15.69;92.62;96374.94;5031397;28;20025;-85
2021/07/23 01:22:06;;;;;;;17.77;12.70;;;;;;;15.67;93.07;96362.88;5036956;28;20476;-84
2021/07/23 01:24:35;;;;;;;14.20;11.10;;;;;;;15.61;92.90;96367.06;5029833;28;20032;-85
2021/07/23 01:27:03;;;;;;;17.87;12.77;;;;;;;15.56;93.22;96362.34;5020054;28;20033;-85
2021/07/23 01:30:08;;;;;;;18.93;12.63;;;;;;;15.46;94.00;96368.91;5023252;28;20041;-85
2021/07/23 01:32:37;;;;;;;14.23;10.63;;;;;;;15.54;93.49;96371.47;5028732;28;20029;-85
2021/07/23 01:35:09;;;;;;;16.77;10.87;;;;;;;15.32;94.95;96366.13;5031338;28;20029;-85
2021/07/23 01:37:39;;;;;;;16.20;10.47;;;;;;;15.41;94.24;96372.13;5015703;28;20037;-84
2021/07/23 01:40:07;;;;;;;15.10;10.83;;;;;;;15.41;93.79;96366.84;5028642;28;20083;-85
2021/07/23 01:42:35;;;;;;;15.30;11.30;;;;;;;15.26;94.33;96358.94;5013519;28;21088;-84
2021/07/23 01:45:03;;;;;;;13.83;10.67;;;;;;;15.19;95.12;96373.94;5020176;28;20051;-84
2021/07/23 01:47:28;;;;;;;18.73;11.90;;;;;;;15.24;94.76;96371.53;5023947;28;20395;-84
2021/07/23 01:49:54;;;;;;;13.50;10.27;;;;;;;15.36;94.07;96361.28;5006277;28;20037;-86
2021/07/23 01:52:23;;;;;;;17.07;11.27;;;;;;;15.42;93.49;96362.34;5024736;28;20132;-84
2021/07/23 01:54:51;;;;;;;14.80;10.97;;;;;;;15.39;93.44;96368.03;5009359;28;20564;-84
2021/07/23 01:57:29;;;;;;;16.73;12.03;;;;;;;15.41;93.38;96368.66;5028258;28;20017;-85
2021/07/23 01:59:57;;;;;;;15.30;11.70;;;;;;;15.43;93.08;96361.38;5009257;28;20036;-85
2021/07/23 02:02:24;;;;;;;19.17;12.33;;;;;;;15.24;94.35;96355.63;5011119;28;20024;-85
2021/07/23 02:04:53;;;;;;;14.90;11.77;;;;;;;15.24;94.68;96360.94;5016882;28;20584;-85
2021/07/23 02:07:22;;;;;;;17.57;12.43;;;;;;;15.14;95.33;96359.56;5016197;28;20509;-86
2021/07/23 02:09:48;;;;;;;14.73;12.13;;;;;;;15.11;95.06;96355.47;5023723;28;20037;-85
2021/07/23 02:12:15;;;;;;;16.87;12.33;;;;;;;15.08;95.66;96351.34;5032824;28;20028;-84
2021/07/23 02:15:06;;;;;;;15.73;12.83;;;;;;;15.08;95.50;96346.06;5049749;28;20040;-85
2021/07/23 02:17:33;;;;;;;16.47;12.97;;;;;;;14.89;96.51;96351.09;5006769;28;20028;-85
2021/07/23 02:20:01;;;;;;;16.00;11.97;;;;;;;14.97;96.14;96351.00;5011626;28;20277;-85
2021/07/23 02:22:32;;;;;;;15.90;12.97;;;;;;;15.08;95.40;96350.53;5023902;28;20038;-85
2021/07/23 02:24:59;;;;;;;15.17;13.07;;;;;;;14.89;95.97;96357.22;5005203;28;20103;-85
2021/07/23 02:27:34;;;;;;;16.50;12.93;;;;;;;14.80;97.13;96351.19;5015812;28;20029;-86
2021/07/23 02:30:01;;;;;;;17.40;12.90;;;;;;;14.94;95.60;96352.19;5029940;28;20403;-86
2021/07/23 02:32:37;;;;;;;14.23;11.70;;;;;;;14.98;95.29;96360.59;5013810;28;20107;-86
2021/07/23 02:35:03;;;;;;;15.77;12.23;;;;;;;14.91;95.40;96349.09;5013998;28;20025;-85
2021/07/23 02:37:42;;;;;;;15.37;11.10;;;;;;;14.89;95.40;96345.78;5011984;28;20028;-86
2021/07/23 02:40:09;;;;;;;16.30;12.13;;;;;;;14.89;95.29;96345.78;5025151;28;20033;-85
2021/07/23 02:42:36;;;;;;;17.83;12.17;;;;;;;14.91;95.61;96346.44;5015660;28;20032;-85
2021/07/23 02:45:03;;;;;;;14.57;11.70;;;;;;;14.90;95.19;96348.28;5018843;28;20037;-85
2021/07/23 02:47:29;;;;;;;16.90;12.23;;;;;;;14.89;94.99;96353.72;5012348;28;20025;-85
2021/07/23 02:49:59;;;;;;;14.87;11.60;;;;;;;14.79;95.79;96348.75;5022305;28;20037;-85
2021/07/23 02:52:31;;;;;;;14.97;11.83;;;;;;;14.81;95.90;96350.19;5007319;28;20036;-85
2021/07/23 02:54:59;;;;;;;15.43;11.80;;;;;;;14.83;95.62;96350.00;5013009;28;20053;-85
2021/07/23 02:57:35;;;;;;;18.23;12.60;;;;;;;14.78;96.44;96352.38;5022674;28;20032;-85
2021/07/23 03:00:03;;;;;;;14.27;11.83;;;;;;;14.67;97.47;96345.72;5014338;28;20490;-85
2021/07/23 03:02:30;;;;;;;15.47;13.00;;;;;;;14.57;98.23;96343.31;5019483;28;20037;-85
2021/07/23 03:04:56;;;;;;;22.93;12.43;;;;;;;14.65;96.72;96338.94;5014833;28;20147;-86
2021/07/23 03:07:23;;;;;;;17.20;12.13;;;;;;;14.68;95.71;96339.41;5009494;28;20231;-85
2021/07/23 03:09:49;;;;;;;17.23;13.70;;;;;;;14.66;96.19;96336.13;5024908;28;20116;-85
2021/07/23 03:12:16;;;;;;;16.83;13.10;;;;;;;14.44;98.75;96337.81;5014471;28;20038;-86
2021/07/23 03:14:50;;;;;;;14.55;12.65;;;;;;;14.39;99.37;96334.91;5012829;28;20025;-85
2021/07/23 03:17:21;;;;;;;17.73;13.63;;;;;;;14.45;98.44;96333.34;5030145;28;20539;-85
2021/07/23 03:19:49;;;;;;;23.37;18.57;;;;;;;14.50;98.49;96337.13;5018925;28;20028;-85
2021/07/23 03:22:18;;;;;;;23.27;19.33;;;;;;;14.52;97.93;96331.63;5017129;28;20048;-85
2021/07/23 03:24:46;;;;;;;19.00;14.80;;;;;;;14.50;97.53;96330.97;5011770;28;20029;-84
2021/07/23 03:27:29;;;;;;;13.68;11.05;;;;;;;14.47;98.09;96326.03;5021021;28;20517;-86
2021/07/23 03:30:27;;;;;;;16.40;12.30;;;;;;;14.36;97.88;96328.13;5020027;28;20037;-86
2021/07/23 03:32:54;;;;;;;15.50;11.70;;;;;;;14.26;98.54;96329.41;5019258;28;20044;-86
2021/07/23 03:35:21;;;;;;;17.83;12.27;;;;;;;14.26;98.70;96321.47;5025611;28;20548;-85
2021/07/23 03:37:48;;;;;;;13.63;11.20;;;;;;;14.30;98.18;96320.09;5010366;28;20044;-84
2021/07/23 03:40:28;;;;;;;13.20;10.77;;;;;;;14.36;97.79;96324.66;5015870;28;20017;-85
2021/07/23 03:42:56;;;;;;;15.67;11.60;;;;;;;14.36;97.55;96328.13;5015819;28;20300;-85
2021/07/23 03:45:26;;;;;;;16.67;12.60;;;;;;;14.32;97.55;96318.94;5005011;28;20078;-85
2021/07/23 03:48:13;;;;;;;14.13;11.97;;;;;;;14.35;97.62;96320.38;5015545;28;20052;-85
2021/07/23 03:50:45;;;;;;;14.30;11.70;;;;;;;14.37;97.57;96321.84;5033254;28;20033;-85
2021/07/23 03:53:13;;;;;;;13.33;11.20;;;;;;;14.36;97.62;96319.38;5029922;28;20034;-85
2021/07/23 03:55:45;;;;;;;14.73;11.40;;;;;;;14.34;97.41;96322.19;5028599;28;20028;-85
2021/07/23 03:58:25;;;;;;;15.33;11.17;;;;;;;14.33;97.47;96322.38;5014066;28;20036;-85
2021/07/23 04:00:51;;;;;;;17.25;12.63;;;;;;;14.25;98.66;96323.28;5028144;28;20043;-84
2021/07/23 04:03:33;;;;;;;16.77;11.93;;;;;;;14.07;100.00;96323.59;5045787;28;20744;-79
2021/07/23 04:06:01;;;;;;;14.47;11.53;;;;;;;14.23;99.04;96320.00;5031002;28;20036;-79
2021/07/23 04:08:28;;;;;;;28.53;23.60;;;;;;;14.23;99.07;96319.19;5026260;28;20125;-79
2021/07/23 04:10:56;;;;;;;23.73;19.10;;;;;;;14.27;98.17;96315.16;5023654;28;20139;-79
2021/07/23 04:13:25;;;;;;;18.07;14.77;;;;;;;14.27;98.76;96317.81;5023611;28;20482;-79
2021/07/23 04:15:51;;;;;;;17.83;11.87;;;;;;;14.24;99.39;96324.28;5036971;28;20041;-79
2021/07/23 04:18:18;;;;;;;19.60;12.73;;;;;;;14.26;98.98;96316.19;5032368;28;20024;-79
2021/07/23 04:21:10;;;;;;;17.80;13.13;;;;;;;14.13;99.79;96325.53;5058090;28;20501;-79
2021/07/23 04:23:37;;;;;;;17.63;12.80;;;;;;;14.11;100.00;96327.53;5039726;28;20440;-79
2021/07/23 04:26:03;;;;;;;16.97;12.17;;;;;;;13.98;100.00;96326.50;5041220;28;20123;-78
2021/07/23 04:28:32;;;;;;;18.23;12.17;;;;;;;14.04;100.00;96326.59;5023807;28;20034;-79
2021/07/23 04:30:58;;;;;;;22.23;15.37;;;;;;;13.97;100.00;96327.50;5033838;28;20390;-79
2021/07/23 04:33:33;;;;;;;19.87;13.90;;;;;;;13.95;100.00;96337.41;5044157;28;20041;-79
2021/07/23 04:36:19;;;;;;;18.57;12.90;;;;;;;14.08;100.00;96321.78;5036273;28;20393;-79
2021/07/23 04:38:44;;;;;;;14.60;11.40;;;;;;;14.19;100.00;96334.59;5036313;28;20116;-78
2021/07/23 04:41:12;;;;;;;20.03;12.20;;;;;;;14.34;98.80;96337.25;5012247;28;20063;-79
2021/07/23 04:43:45;;;;;;;15.53;12.37;;;;;;;14.46;98.46;96335.00;5039983;28;20536;-79
2021/07/23 04:46:11;;;;;;;16.33;13.83;;;;;;;14.55;98.21;96328.63;5039621;28;20041;-79
2021/07/23 04:48:37;;;;;;;21.97;17.77;;;;;;;14.60;98.11;96339.50;5029948;28;20033;-79
2021/07/23 04:51:10;;;;;;;22.77;17.53;;;;;;;14.70;97.87;96339.25;5024725;28;20413;-79
2021/07/23 04:53:41;;;;;;;15.87;11.97;;;;;;;14.76;97.43;96346.47;5028345;28;20483;-79
2021/07/23 04:56:46;;;;;;;20.90;15.20;;;;;;;14.69;97.24;96346.38;5062272;22;20071;-78
2021/07/23 04:59:13;;;;;;;18.17;12.67;;;;;;;14.49;99.50;96346.03;5045076;28;20060;-78
2021/07/23 05:01:38;;;;;;;17.90;12.50;;;;;;;14.52;99.07;96344.88;5060867;28;20350;-77
2021/07/23 05:04:04;;;;;;;16.10;12.80;;;;;;;14.52;99.01;96342.22;5065489;28;20697;-78
2021/07/23 05:06:30;;;;;;;19.37;11.73;;;;;;;14.56;97.52;96338.22;5048964;28;20018;-80
2021/07/23 05:08:56;;;;;;;14.13;11.20;;;;;;;14.72;97.54;96340.72;5048784;28;20143;-79
2021/07/23 05:11:22;;;;;;;20.20;12.43;;;;;;;14.99;96.24;96330.44;5064707;28;20156;-82
2021/07/23 05:13:53;;;;;;;16.50;12.33;;;;;;;15.10;94.04;96337.94;5039019;28;20048;-82
2021/07/23 05:16:19;;;;;;;17.03;11.63;;;;;;;15.15;94.53;96332.06;5038501;28;20031;-83
2021/07/23 05:18:45;;;;;;;18.67;12.43;;;;;;;15.40;92.73;96343.19;5028482;28;20385;-80
2021/07/23 05:21:11;;;;;;;20.20;13.53;;;;;;;15.31;93.19;96342.47;5028802;28;20029;-79
2021/07/23 05:23:39;;;;;;;19.23;12.80;;;;;;;15.52;91.92;96342.50;5030026;28;20528;-80
2021/07/23 05:26:05;;;;;;;16.73;12.00;;;;;;;15.85;89.36;96335.94;5015865;28;20390;-80
2021/07/23 05:28:32;;;;;;;16.00;12.33;;;;;;;16.11;87.27;96336.16;5025605;28;20067;-79
2021/07/23 05:30:59;;;;;;;15.90;11.80;;;;;;;16.31;86.71;96330.19;5029233;28;20128;-79
2021/07/23 05:33:25;;;;;;;14.60;11.93;;;;;;;16.27;87.59;96327.13;5043950;28;20022;-76
2021/07/23 05:35:51;;;;;;;15.67;11.37;;;;;;;16.63;88.28;96334.09;5026573;28;20535;-75
2021/07/23 05:38:17;;;;;;;12.87;9.80;;;;;;;17.00;88.19;96330.28;5026837;28;20026;-77
2021/07/23 05:40:42;;;;;;;14.10;10.13;;;;;;;17.30;86.70;96327.31;5042275;28;20066;-75
2021/07/23 05:43:08;;;;;;;16.60;10.83;;;;;;;17.15;86.69;96332.78;5030429;28;20095;-79
2021/07/23 05:45:38;;;;;;;13.27;10.63;;;;;;;16.83;88.78;96340.38;5042899;28;20124;-77
2021/07/23 05:48:04;;;;;;;14.50;10.82;;;;;;;16.94;88.46;96331.06;5043399;28;20413;-77
2021/07/23 05:50:29;;;;;;;15.85;9.52;;;;;;;17.37;86.79;96328.13;5044474;28;20427;-77
2021/07/23 05:52:55;;;;;;;11.27;9.32;;;;;;;17.72;83.98;96325.38;5038449;28;20033;-78
2021/07/23 05:55:22;;;;;;;11.23;9.07;;;;;;;17.70;83.37;96322.91;5026518;28;20120;-78
2021/07/23 05:57:49;;;;;;;13.43;8.27;;;;;;;18.06;81.88;96330.56;5044070;28;20378;-79
2021/07/23 06:00:15;;;;;;;14.43;9.00;;;;;;;17.79;83.57;96329.72;5041517;28;20033;-78
2021/07/23 06:02:41;;;;;;;14.02;9.23;;;;;;;18.26;81.17;96329.78;5018274;28;20048;-77
2021/07/23 06:05:08;;;;;;;14.52;8.98;;;;;;;18.50;79.31;96331.78;5018438;28;20574;-78
2021/07/23 06:07:33;;;;;;;15.00;7.72;;;;;;;18.54;80.22;96333.03;5047518;28;20565;-77
2021/07/23 06:09:59;;;;;;;12.65;9.48;;;;;;;18.81;79.22;96327.66;5039775;28;20033;-77
2021/07/23 06:12:25;;;;;;;16.45;12.15;;;;;;;19.00;77.89;96342.81;5024872;28;20148;-79
2021/07/23 06:14:50;;;;;;;16.67;11.48;;;;;;;19.55;75.98;96324.53;5024774;28;20075;-78
2021/07/23 06:17:16;;;;;;;17.30;11.98;;;;;;;19.63;73.31;96336.84;5039280;28;20033;-77
2021/07/23 06:19:42;;;;;;;16.23;12.90;;;;;;;19.69;71.60;96330.66;5021640;28;20219;-78
2021/07/23 06:22:07;;;;;;;16.13;11.25;;;;;;;20.28;71.86;96322.44;5027506;28;20025;-78
2021/07/23 06:24:34;;;;;;;16.60;11.10;;;;;;;20.17;70.26;96318.63;5044663;28;20402;-79
2021/07/23 06:26:59;;;;;;;15.48;11.38;;;;;;;20.31;69.05;96322.81;5026221;28;20509;-78
2021/07/23 06:29:25;;;;;;;14.90;12.02;;;;;;;20.47;69.91;96318.78;5027342;28;20040;-78
2021/07/23 06:31:51;;;;;;;14.15;11.65;;;;;;;20.50;70.18;96326.34;5043181;28;20069;-77
2021/07/23 06:34:16;;;;;;;15.85;11.60;;;;;;;20.83;67.09;96325.25;5028173;28;20544;-78
2021/07/23 06:36:42;;;;;;;15.43;11.30;;;;;;;20.88;67.68;96328.88;5026713;28;20061;-78
2021/07/23 06:39:08;;;;;;;17.02;11.68;;;;;;;20.93;66.69;96321.03;5016314;28;20523;-78
2021/07/23 06:41:33;;;;;;;14.82;11.13;;;;;;;21.32;64.79;96318.91;5026914;28;20037;-78
2021/07/23 06:44:00;;;;;;;14.05;11.27;;;;;;;21.10;64.91;96320.44;5039139;28;20526;-78
2021/07/23 06:46:26;;;;;;;16.25;11.20;;;;;;;21.49;64.82;96313.78;5028095;28;20021;-78
2021/07/23 06:48:51;;;;;;;16.30;10.73;;;;;;;21.57;62.58;96321.53;5022964;28;20029;-77
2021/07/23 06:51:17;;;;;;;14.57;11.63;;;;;;;22.04;61.89;96318.19;5016411;28;20045;-78
2021/07/23 06:53:43;;;;;;;13.48;10.20;;;;;;;22.21;61.10;96321.84;5023532;28;20037;-78
2021/07/23 06:56:08;;;;;;;14.93;11.02;;;;;;;22.11;60.98;96318.91;5035533;28;20018;-78
2021/07/23 06:58:34;;;;;;;14.25;9.77;;;;;;;23.16;57.09;96323.50;5024556;28;20489;-77
2021/07/23 07:01:07;;;;;;;13.52;10.25;;;;;;;22.66;59.08;96313.25;5024365;28;20477;-78
2021/07/23 07:03:33;;;;;;;14.23;9.65;;;;;;;23.61;55.04;96314.75;5025520;28;20095;-78
2021/07/23 07:05:59;;;;;;;11.85;9.77;;;;;;;23.24;56.62;96315.09;5033706;28;20123;-77
2021/07/23 07:08:25;;;;;;;12.23;9.98;;;;;;;23.29;56.47;96304.44;5067636;28;20033;-77
2021/07/23 07:10:51;;;;;;;14.07;10.18;;;;;;;23.72;53.71;96311.22;5053569;28;20021;-77
2021/07/23 07:13:17;;;;;;;12.38;9.07;;;;;;;23.11;55.77;96312.69;5034376;28;20033;-77
2021/07/23 07:15:43;;;;;;;14.25;9.80;;;;;;;24.49;52.72;96301.78;5030282;28;20014;-77
2021/07/23 07:18:08;;;;;;;17.52;11.02;;;;;;;23.79;53.07;96300.31;5025490;28;20030;-77
2021/07/23 07:20:34;;;;;;;10.85;9.70;;;;;;;24.63;50.94;96294.19;5011567;28;20553;-77
2021/07/23 07:23:01;;;;;;;12.18;8.70;;;;;;;24.93;50.86;96296.50;5031569;28;20064;-77
2021/07/23 07:25:27;;;;;;;11.43;9.55;;;;;;;25.00;50.56;96297.13;5041864;28;20494;-79
2021/07/23 07:27:54;;;;;;;12.98;10.07;;;;;;;25.13;51.06;96299.50;5043745;28;20037;-77
2021/07/23 07:30:21;;;;;;;14.73;11.35;;;;;;;25.30;52.07;96298.63;5014857;28;20021;-77
2021/07/23 07:32:47;;;;;;;12.10;9.32;;;;;;;25.67;51.25;96303.34;5026338;28;20052;-77
2021/07/23 07:35:13;;;;;;;15.15;10.07;;;;;;;26.29;49.95;96300.16;5023934;28;20056;-78
2021/07/23 07:37:39;;;;;;;13.75;10.65;;;;;;;25.94;47.39;96308.75;5016255;28;20078;-78
2021/07/23 07:40:06;;;;;;;12.52;9.48;;;;;;;26.13;45.86;96298.44;5038287;28;20048;-78
2021/07/23 07:42:32;;;;;;;13.48;8.95;;;;;;;26.35;45.28;96293.75;5042941;28;20095;-77
2021/07/23 07:44:58;;;;;;;13.60;9.45;;;;;;;25.92;46.26;96298.22;5041492;28;20033;-78
2021/07/23 07:47:25;;;;;;;11.55;9.40;;;;;;;26.02;47.08;96301.03;5033627;28;20095;-77
2021/07/23 07:49:51;;;;;;;14.25;10.63;;;;;;;26.02;46.61;96298.34;5043976;28;20021;-78
2021/07/23 07:52:18;;;;;;;12.43;9.90;;;;;;;25.84;46.95;96293.31;5041785;28;20372;-78
2021/07/23 07:54:46;;;;;;;13.52;9.82;;;;;;;27.19;43.25;96292.16;5021625;28;20110;-77
2021/07/23 07:57:11;;;;;;;12.70;9.70;;;;;;;27.43;44.89;96298.75;5022687;28;20133;-77
2021/07/23 07:59:38;;;;;;;11.75;9.35;;;;;;;28.26;44.21;96288.91;5023047;28;20397;-79
2021/07/23 08:02:11;;;;;;;12.93;10.23;;;;;;;28.48;44.13;96286.78;5043598;28;20034;-78
2021/07/23 08:04:38;;;;;;;12.10;8.48;;;;;;;28.85;43.46;96291.88;5031883;28;20064;-77
2021/07/23 08:07:07;;;;;;;12.70;9.75;;;;;;;28.51;43.33;96293.56;5007077;28;20243;-79
2021/07/23 08:09:53;;;;;;;13.65;9.38;;;;;;;29.68;40.52;96282.41;5021460;28;20041;-77
2021/07/23 08:12:22;;;;;;;11.82;8.88;;;;;;;29.68;40.58;96287.81;5041907;28;20025;-77
2021/07/23 08:14:48;;;;;;;11.30;8.73;;;;;;;30.04;39.86;96285.66;5040916;28;20033;-77
2021/07/23 08:17:14;;;;;;;12.15;9.20;;;;;;;29.77;39.62;96291.53;5032279;28;20043;-77
2021/07/23 08:19:40;;;;;;;11.75;8.63;;;;;;;29.89;39.66;96284.97;5025873;28;20029;-77
2021/07/23 08:22:06;;;;;;;11.98;8.85;;;;;;;29.51;40.09;96287.31;5042072;28;20040;-76
2021/07/23 08:24:32;;;;;;;11.70;8.70;;;;;;;29.78;38.67;96287.75;5020476;28;20060;-76
2021/07/23 08:26:58;;;;;;;13.27;8.35;;;;;;;30.53;38.64;96273.09;5037538;28;20136;-75
2021/07/23 08:29:24;;;;;;;11.18;8.77;;;;;;;28.95;41.70;96282.09;5030694;28;20031;-76
2021/07/23 08:31:50;;;;;;;10.75;8.77;;;;;;;29.49;40.44;96279.47;5032697;28;20025;-79
2021/07/23 08:34:16;;;;;;;13.02;8.82;;;;;;;29.30;40.41;96276.56;5030955;28;20034;-79
2021/07/23 08:36:42;;;;;;;9.45;8.43;;;;;;;28.85;39.15;96275.63;5041424;28;20537;-77
2021/07/23 08:39:08;;;;;;;11.60;8.80;;;;;;;29.58;37.35;96275.09;5034169;28;20074;-78
2021/07/23 08:41:35;;;;;;;10.50;7.78;;;;;;;29.01;37.54;96276.44;5035915;28;20030;-78
2021/07/23 08:44:02;;;;;;;12.13;9.00;;;;;;;28.04;40.00;96271.06;5023070;28;20029;-80
2021/07/23 08:46:29;;;;;;;9.48;7.70;;;;;;;29.32;38.87;96274.41;5023741;28;20029;-79
2021/07/23 08:48:57;;;;;;;8.88;7.57;;;;;;;29.75;35.26;96268.53;5043315;28;20053;-78
2021/07/23 08:51:22;;;;;;;10.45;7.65;;;;;;;28.97;37.41;96269.09;5033157;28;20033;-77
2021/07/23 08:53:48;;;;;;;9.23;7.47;;;;;;;29.84;36.81;96261.41;5048476;28;20488;-78
2021/07/23 08:56:14;;;;;;;10.43;8.00;;;;;;;30.03;35.97;96266.97;5049745;28;20039;-78
2021/07/23 08:58:40;;;;;;;11.15;7.18;;;;;;;29.07;36.85;96269.88;5026353;28;20425;-79
2021/07/23 09:01:08;;;;;;;10.25;7.07;;;;;;;30.15;35.93;96272.84;5042924;28;20171;-78
2021/07/23 09:03:34;;;;;;;9.13;6.32;;;;;;;30.65;33.01;96272.69;5027587;28;20112;-78
2021/07/23 09:06:17;;;;;;;9.90;6.32;;;;;;;31.15;32.21;96271.38;5047658;28;20045;-78
2021/07/23 09:08:51;;;;;;;8.43;6.10;;;;;;;30.13;33.41;96271.50;5028224;28;20048;-78
2021/07/23 09:11:28;;;;;;;9.98;6.88;;;;;;;29.06;34.86;96276.41;5043266;28;20044;-78
2021/07/23 09:14:13;;;;;;;18.15;6.97;;;;;;;29.51;35.13;96271.03;5042097;28;20048;-78
2021/07/23 09:16:39;;;;;;;8.20;6.80;;;;;;;29.99;34.38;96265.94;5022702;28;20083;-78
2021/07/23 09:19:09;;;;;;;8.95;6.75;;;;;;;31.31;32.21;96268.47;5029035;28;20037;-79
2021/07/23 09:21:40;;;;;;;8.82;6.57;;;;;;;30.73;31.98;96261.22;5010501;28;20654;-78
2021/07/23 09:24:07;;;;;;;10.65;7.03;;;;;;;30.81;33.02;96252.47;5048839;28;20045;-78
2021/07/23 09:26:44;;;;;;;8.18;6.47;;;;;;;31.48;31.80;96257.16;5043070;28;20037;-79
2021/07/23 09:29:11;;;;;;;15.82;8.85;;;;;;;32.73;31.14;96253.84;5021154;28;20034;-78
2021/07/23 09:31:36;;;;;;;10.13;7.07;;;;;;;32.57;30.10;96247.91;5048831;28;20021;-79
2021/07/23 09:34:07;;;;;;;9.10;6.90;;;;;;;31.58;30.71;96249.66;5025120;28;20036;-79
2021/07/23 09:36:33;;;;;;;8.48;7.30;;;;;;;31.60;29.98;96247.47;5024519;28;20500;-78
2021/07/23 09:39:05;;;;;;;8.40;6.25;;;;;;;31.86;29.61;96245.19;5038009;28;20025;-78
2021/07/23 09:41:32;;;;;;;8.77;7.00;;;;;;;31.46;30.59;96244.66;5022811;28;20037;-78
2021/07/23 09:44:08;;;;;;;10.45;7.22;;;;;;;29.67;33.56;96236.59;5041342;28;20054;-78
2021/07/23 09:46:34;;;;;;;8.52;7.20;;;;;;;31.53;30.82;96249.75;5022464;28;20064;-78
2021/07/23 09:49:18;;;;;;;9.52;7.25;;;;;;;31.95;29.78;96234.47;5030894;28;20052;-78
2021/07/23 09:51:44;;;;;;;8.90;7.68;;;;;;;31.95;28.73;96230.94;5018175;28;20162;-79
2021/07/23 09:54:10;;;;;;;12.65;7.22;;;;;;;31.35;29.92;96229.56;5038088;28;20571;-79
2021/07/23 09:56:35;;;;;;;9.70;6.90;;;;;;;32.51;29.29;96225.38;5026650;28;20082;-79
2021/07/23 09:59:31;;;;;;;10.60;7.05;;;;;;;33.39;29.08;96219.84;5041301;28;20060;-78
2021/07/23 10:02:00;;;;;;;8.88;7.25;;;;;;;33.44;27.74;96218.97;5010763;28;20073;-78
2021/07/23 10:04:31;;;;;;;13.90;11.68;;;;;;;34.52;27.84;96217.28;5023309;28;20549;-79
2021/07/23 10:07:15;;;;;;;15.40;12.70;;;;;;;33.51;27.66;96220.16;5037479;28;20041;-78
2021/07/23 10:09:43;;;;;;;9.90;7.43;;;;;;;32.49;30.96;96213.97;5048138;28;20051;-79
2021/07/23 10:12:12;;;;;;;11.70;7.68;;;;;;;30.99;32.70;96223.78;5025519;28;20556;-79
2021/07/23 10:14:44;;;;;;;11.20;7.35;;;;;;;32.25;30.80;96216.81;5041330;28;20035;-78
2021/07/23 10:17:10;;;;;;;12.07;7.65;;;;;;;30.26;34.04;96216.63;5048629;28;20375;-78
2021/07/23 10:19:37;;;;;;;12.07;8.35;;;;;;;31.14;32.74;96222.78;5048166;28;20018;-79
2021/07/23 10:22:03;;;;;;;11.68;8.45;;;;;;;30.00;34.22;96211.41;5027356;28;20064;-78
2021/07/23 10:24:36;;;;;;;10.68;8.52;;;;;;;32.68;31.42;96203.03;5042575;28;20048;-78
2021/07/23 10:27:12;;;;;;;12.68;9.82;;;;;;;34.30;28.55;96196.22;5022685;28;20041;-78
2021/07/23 10:29:43;;;;;;;13.13;10.55;;;;;;;34.19;28.43;96195.69;5026826;28;20040;-78
2021/07/23 10:32:26;;;;;;;10.15;8.43;;;;;;;32.04;30.08;96205.50;5049230;28;20043;-78
2021/07/23 10:34:57;;;;;;;9.23;7.50;;;;;;;32.03;31.42;96201.16;5042935;28;20069;-78
2021/07/23 10:37:28;;;;;;;9.02;7.57;;;;;;;32.29;30.69;96196.06;5043546;28;20033;-78
2021/07/23 10:40:10;;;;;;;10.52;7.90;;;;;;;32.72;30.22;96190.41;5042254;28;20486;-78
2021/07/23 10:42:46;;;;;;;10.82;8.32;;;;;;;32.52;30.04;96182.63;5010145;28;20032;-79
2021/07/23 10:45:16;;;;;;;10.73;8.70;;;;;;;32.31;30.73;96184.91;5022497;28;20601;-79
2021/07/23 10:47:51;;;;;;;9.40;7.78;;;;;;;32.78;30.86;96188.41;5026741;28;20065;-81
2021/07/23 10:50:20;;;;;;;10.80;8.02;;;;;;;31.81;31.18;96181.91;5060390;28;20100;-81
2021/07/23 10:52:46;;;;;;;10.65;8.63;;;;;;;32.59;29.83;96183.84;5060221;28;20361;-78
2021/07/23 10:55:12;;;;;;;20.52;15.13;;;;;;;32.73;31.00;96177.59;5023723;28;20037;-78
2021/07/23 10:57:39;;;;;;;11.68;8.27;;;;;;;32.26;31.20;96174.94;5040400;28;20067;-79
2021/07/23 11:00:10;;;;;;;12.60;8.93;;;;;;;32.69;31.23;96171.16;5042514;28;20053;-79
2021/07/23 11:02:46;;;;;;;10.95;8.65;;;;;;;31.60;31.20;96162.38;5043268;28;20050;-78
2021/07/23 11:05:20;;;;;;;10.43;8.65;;;;;;;31.92;31.36;96165.13;5050413;28;20696;-79
2021/07/23 11:07:48;;;;;;;10.90;8.43;;;;;;;33.03;29.62;96160.69;5017809;28;20025;-78
2021/07/23 11:10:17;;;;;;;11.68;8.10;;;;;;;32.76;30.94;96158.72;5034329;28;20017;-78
2021/07/23 11:12:45;;;;;;;10.55;8.40;;;;;;;33.20;30.05;96151.03;5014401;28;20030;-78
2021/07/23 11:15:15;;;;;;;11.13;8.45;;;;;;;33.70;29.03;96151.00;5020348;28;20044;-79
2021/07/23 11:17:57;;;;;;;11.02;8.45;;;;;;;32.55;30.19;96152.88;5034030;28;20041;-79
2021/07/23 11:20:26;;;;;;;11.68;8.95;;;;;;;28.83;37.74;96163.28;5030624;28;20033;-80
2021/07/23 11:23:07;;;;;;;11.70;8.10;;;;;;;29.52;35.11;96150.75;5029107;28;20029;-81
2021/07/23 11:25:47;;;;;;;12.50;9.45;;;;;;;30.46;35.00;96154.03;5035768;28;20009;-79
2021/07/23 11:28:16;;;;;;;13.63;11.70;;;;;;;32.61;30.96;96140.00;5017163;28;20041;-81
2021/07/23 11:30:48;;;;;;;;;;;;;;;32.98;30.72;96136.25;5034257;28;20029;-81